createdAt,value
2023-05-12T00:00:36.774Z,0
2023-05-12T00:01:51.221Z,0
2023-05-12T00:03:04.829Z,0
2023-05-12T00:04:19.278Z,0
2023-05-12T00:05:33.746Z,0
2023-05-12T00:06:48.203Z,0
2023-05-12T00:08:02.671Z,0
2023-05-12T00:09:17.161Z,0
2023-05-12T00:10:31.607Z,0
2023-05-12T00:11:46.085Z,0
2023-05-12T00:13:00.549Z,0
2023-05-12T00:14:15.016Z,0
2023-05-12T00:15:29.478Z,0
2023-05-12T00:16:43.958Z,0
2023-05-12T00:17:58.408Z,0
2023-05-12T00:20:26.485Z,0
2023-05-12T00:21:40.947Z,0
2023-05-12T00:22:55.422Z,0
2023-05-12T00:24:09.891Z,0
2023-05-12T00:25:24.335Z,0
2023-05-12T00:26:38.819Z,0
2023-05-12T00:27:53.288Z,0
2023-05-12T00:29:07.746Z,0
2023-05-12T00:30:22.216Z,0
2023-05-12T00:31:36.675Z,0
2023-05-12T00:32:51.154Z,0
2023-05-12T00:34:05.610Z,0
2023-05-12T00:35:20.088Z,0
2023-05-12T00:36:33.675Z,0
2023-05-12T00:37:48.147Z,0
2023-05-12T00:39:02.604Z,0
2023-05-12T00:40:17.067Z,0
2023-05-12T00:41:31.542Z,0
2023-05-12T00:42:46.011Z,0
2023-05-12T00:44:00.479Z,0
2023-05-12T00:45:14.939Z,0
2023-05-12T00:46:29.403Z,0
2023-05-12T00:47:43.868Z,0
2023-05-12T00:48:58.344Z,0
2023-05-12T00:50:12.826Z,0
2023-05-12T00:51:27.274Z,0
2023-05-12T00:52:40.878Z,0
2023-05-12T00:53:55.341Z,0
2023-05-12T00:55:09.811Z,0
2023-05-12T00:56:24.261Z,0
2023-05-12T00:57:38.752Z,0
2023-05-12T00:58:53.202Z,0
2023-05-12T01:00:07.672Z,0
2023-05-12T01:01:22.139Z,0
2023-05-12T01:02:36.621Z,0
2023-05-12T01:03:51.078Z,0
2023-05-12T01:05:05.000Z,0
2023-05-12T01:07:34.467Z,0
2023-05-12T01:08:48.945Z,0
2023-05-12T01:10:02.542Z,0
2023-05-12T01:11:17.028Z,0
2023-05-12T01:12:31.473Z,0
2023-05-12T01:13:45.944Z,0
2023-05-12T01:15:00.400Z,0
2023-05-12T01:16:14.883Z,0
2023-05-12T01:17:29.329Z,0
2023-05-12T01:18:43.798Z,0
2023-05-12T01:19:58.264Z,0
2023-05-12T01:21:12.740Z,0
2023-05-12T01:22:27.200Z,0
2023-05-12T01:23:41.667Z,0
2023-05-12T01:24:56.161Z,0
2023-05-12T01:26:09.726Z,0
2023-05-12T01:27:24.214Z,0
2023-05-12T01:28:38.664Z,0
2023-05-12T01:29:53.143Z,0
2023-05-12T01:31:07.000Z,0
2023-05-12T01:32:22.064Z,0
2023-05-12T01:33:36.530Z,0
2023-05-12T01:34:51.000Z,0
2023-05-12T01:37:19.966Z,0
2023-05-12T01:38:34.406Z,0
2023-05-12T01:39:48.870Z,0
2023-05-12T01:41:03.337Z,0
2023-05-12T01:42:17.824Z,0
2023-05-12T01:43:32.289Z,0
2023-05-12T01:44:45.886Z,0
2023-05-12T01:46:00.330Z,0
2023-05-12T01:47:14.818Z,0
2023-05-12T01:48:29.268Z,0
2023-05-12T01:49:43.746Z,0
2023-05-12T01:50:58.199Z,0
2023-05-12T01:52:12.677Z,0
2023-05-12T01:53:27.147Z,0
2023-05-12T01:54:41.604Z,0
2023-05-12T01:55:56.070Z,0
2023-05-12T01:57:10.540Z,0
2023-05-12T01:58:25.003Z,0
2023-05-12T01:59:39.480Z,0
2023-05-12T02:00:53.059Z,0
2023-05-12T02:02:07.549Z,0
2023-05-12T02:03:21.995Z,0
2023-05-12T02:04:36.474Z,0
2023-05-12T02:05:50.957Z,0
2023-05-12T02:07:05.426Z,0
2023-05-12T02:08:19.875Z,0
2023-05-12T02:09:34.344Z,0
2023-05-12T02:10:48.805Z,0
2023-05-12T02:12:03.288Z,0
2023-05-12T02:14:32.222Z,0
2023-05-12T02:15:46.692Z,0
2023-05-12T02:17:01.163Z,0
2023-05-12T02:18:15.615Z,0
2023-05-12T02:19:29.217Z,0
2023-05-12T02:20:43.675Z,0
2023-05-12T02:21:58.159Z,0
2023-05-12T02:23:12.606Z,0
2023-05-12T02:24:27.083Z,0
2023-05-12T02:26:56.022Z,0
2023-05-12T02:28:10.467Z,0
2023-05-12T02:29:24.959Z,0
2023-05-12T02:30:39.412Z,0
2023-05-12T02:31:53.899Z,0
2023-05-12T02:33:08.344Z,0
2023-05-12T02:34:22.805Z,0
2023-05-12T02:36:50.871Z,0
2023-05-12T02:38:05.334Z,0
2023-05-12T02:39:19.810Z,0
2023-05-12T02:40:34.281Z,0
2023-05-12T02:41:48.733Z,0
2023-05-12T02:43:03.213Z,0
2023-05-12T02:44:17.701Z,0
2023-05-12T02:46:46.634Z,0
2023-05-12T02:48:01.074Z,0
2023-05-12T02:49:14.682Z,0
2023-05-12T02:50:28.281Z,0
2023-05-12T02:51:42.761Z,0
2023-05-12T02:52:57.222Z,0
2023-05-12T02:54:11.683Z,0
2023-05-12T02:55:26.159Z,0
2023-05-12T02:56:40.635Z,0
2023-05-12T02:57:55.078Z,0
2023-05-12T02:59:09.502Z,1
2023-05-12T03:01:38.336Z,1
2023-05-12T03:02:52.760Z,1
2023-05-12T03:04:07.171Z,2
2023-05-12T03:05:21.588Z,2
2023-05-12T03:06:36.026Z,2
2023-05-12T03:07:50.415Z,1
2023-05-12T03:09:03.953Z,1
2023-05-12T03:10:18.360Z,2
2023-05-12T03:11:32.794Z,1
2023-05-12T03:12:47.204Z,5
2023-05-12T03:14:01.618Z,4
2023-05-12T03:15:15.175Z,4
2023-05-12T03:16:29.595Z,5
2023-05-12T03:17:43.986Z,7
2023-05-12T03:18:57.543Z,8
2023-05-12T03:20:11.936Z,9
2023-05-12T03:21:26.368Z,8
2023-05-12T03:22:40.776Z,9
2023-05-12T03:23:55.203Z,12
2023-05-12T03:25:09.599Z,18
2023-05-12T03:26:24.005Z,15
2023-05-12T03:27:38.419Z,18
2023-05-12T03:28:52.843Z,19
2023-05-12T03:30:07.246Z,23
2023-05-12T03:31:21.690Z,24
2023-05-12T03:32:36.073Z,27
2023-05-12T03:33:50.489Z,29
2023-05-12T03:35:04.063Z,27
2023-05-12T03:36:18.443Z,29
2023-05-12T03:37:32.860Z,33
2023-05-12T03:38:47.271Z,32
2023-05-12T03:41:16.099Z,35
2023-05-12T03:42:30.508Z,37
2023-05-12T03:43:44.921Z,40
2023-05-12T03:44:59.337Z,43
2023-05-12T03:46:13.745Z,43
2023-05-12T03:47:28.177Z,45
2023-05-12T03:48:42.595Z,43
2023-05-12T03:49:56.995Z,45
2023-05-12T03:51:11.433Z,47
2023-05-12T03:52:25.821Z,47
2023-05-12T03:53:39.351Z,50
2023-05-12T03:54:53.769Z,57
2023-05-12T03:56:08.202Z,63
2023-05-12T03:57:22.595Z,64
2023-05-12T03:58:37.034Z,69
2023-05-12T03:59:51.450Z,82
2023-05-12T04:01:05.831Z,85
2023-05-12T04:02:20.251Z,92
2023-05-12T04:03:34.661Z,98
2023-05-12T04:04:49.079Z,106
2023-05-12T04:06:03.493Z,109
2023-05-12T04:07:17.916Z,107
2023-05-12T04:08:32.345Z,111
2023-05-12T04:09:45.851Z,121
2023-05-12T04:11:00.278Z,128
2023-05-12T04:13:29.115Z,140
2023-05-12T04:14:43.529Z,150
2023-05-12T04:15:57.918Z,154
2023-05-12T04:17:12.331Z,156
2023-05-12T04:18:26.754Z,158
2023-05-12T04:19:41.160Z,165
2023-05-12T04:20:55.584Z,166
2023-05-12T04:22:09.994Z,166
2023-05-12T04:23:24.417Z,173
2023-05-12T04:24:38.814Z,182
2023-05-12T04:25:53.236Z,184
2023-05-12T04:27:07.653Z,189
2023-05-12T04:28:21.179Z,198
2023-05-12T04:29:35.594Z,211
2023-05-12T04:30:50.014Z,211
2023-05-12T04:32:04.420Z,221
2023-05-12T04:33:18.833Z,232
2023-05-12T04:34:33.262Z,247
2023-05-12T04:35:47.674Z,251
2023-05-12T04:37:02.101Z,256
2023-05-12T04:38:16.498Z,253
2023-05-12T04:39:30.910Z,218
2023-05-12T04:40:45.317Z,300
2023-05-12T04:41:59.768Z,268
2023-05-12T04:43:14.150Z,274
2023-05-12T04:44:27.681Z,272
2023-05-12T04:45:42.104Z,277
2023-05-12T04:46:56.512Z,120
2023-05-12T04:48:10.920Z,546
2023-05-12T04:49:25.338Z,288
2023-05-12T04:50:39.776Z,305
2023-05-12T04:51:54.178Z,285
2023-05-12T04:53:08.585Z,328
2023-05-12T04:55:37.406Z,326
2023-05-12T04:56:51.819Z,339
2023-05-12T04:58:06.258Z,343
2023-05-12T05:00:35.089Z,363
2023-05-12T05:01:49.468Z,369
2023-05-12T05:03:03.004Z,382
2023-05-12T05:04:17.436Z,353
2023-05-12T05:05:31.860Z,477
2023-05-12T05:06:46.281Z,425
2023-05-12T05:08:00.691Z,439
2023-05-12T05:09:15.079Z,452
2023-05-12T05:10:29.509Z,465
2023-05-12T05:11:43.908Z,473
2023-05-12T05:12:58.325Z,472
2023-05-12T05:14:12.736Z,483
2023-05-12T05:15:27.181Z,475
2023-05-12T05:16:41.559Z,487
2023-05-12T05:17:55.980Z,483
2023-05-12T05:19:09.499Z,444
2023-05-12T05:20:23.950Z,573
2023-05-12T05:21:38.330Z,516
2023-05-12T05:22:52.780Z,524
2023-05-12T05:24:07.157Z,530
2023-05-12T05:26:35.997Z,540
2023-05-12T05:27:50.424Z,551
2023-05-12T05:30:19.231Z,565
2023-05-12T05:31:33.678Z,570
2023-05-12T05:32:48.048Z,580
2023-05-12T05:34:02.472Z,591
2023-05-12T05:35:16.008Z,597
2023-05-12T05:36:30.438Z,604
2023-05-12T05:37:44.838Z,624
2023-05-12T05:38:59.241Z,637
2023-05-12T05:40:13.660Z,651
2023-05-12T05:41:28.100Z,662
2023-05-12T05:42:42.511Z,675
2023-05-12T05:43:56.892Z,693
2023-05-12T05:45:11.314Z,732
2023-05-12T05:46:25.720Z,749
2023-05-12T05:47:40.134Z,766
2023-05-12T05:50:08.962Z,819
2023-05-12T05:51:23.378Z,800
2023-05-12T05:52:36.945Z,798
2023-05-12T05:55:04.877Z,820
2023-05-12T05:56:19.304Z,845
2023-05-12T05:57:33.703Z,905
2023-05-12T05:58:48.127Z,851
2023-05-12T06:00:02.544Z,717
2023-05-12T06:01:16.977Z,1180
2023-05-12T06:02:31.387Z,919
2023-05-12T06:05:00.222Z,915
2023-05-12T06:06:14.628Z,924
2023-05-12T06:07:28.180Z,970
2023-05-12T06:08:41.696Z,927
2023-05-12T06:09:55.253Z,995
2023-05-12T06:11:09.650Z,938
2023-05-12T06:12:24.057Z,982
2023-05-12T06:13:38.510Z,1057
2023-05-12T06:14:52.885Z,987
2023-05-12T06:16:07.287Z,684
2023-05-12T06:17:21.720Z,1698
2023-05-12T06:18:36.144Z,1200
2023-05-12T06:19:49.701Z,1143
2023-05-12T06:21:04.085Z,1013
2023-05-12T06:23:32.917Z,1396
2023-05-12T06:24:46.476Z,1202
2023-05-12T06:27:15.290Z,1198
2023-05-12T06:30:58.546Z,824
2023-05-12T06:32:12.947Z,1750
2023-05-12T06:33:27.348Z,833
2023-05-12T06:34:41.802Z,2375
2023-05-12T06:35:56.179Z,679
2023-05-12T06:37:10.585Z,3696
2023-05-12T06:38:25.004Z,1683
2023-05-12T06:39:39.417Z,760
2023-05-12T06:40:53.823Z,2591
2023-05-12T06:42:08.234Z,2490
2023-05-12T06:43:22.666Z,3141
2023-05-12T06:44:37.063Z,1393
2023-05-12T06:45:51.483Z,1624
2023-05-12T06:48:19.459Z,2985
2023-05-12T06:49:33.866Z,1132
2023-05-12T06:50:48.288Z,1699
2023-05-12T06:52:02.688Z,1618
2023-05-12T06:53:17.130Z,1097
2023-05-12T06:54:30.665Z,1064
2023-05-12T06:55:45.072Z,2179
2023-05-12T06:56:58.621Z,487
2023-05-12T06:58:13.044Z,770
2023-05-12T06:59:27.432Z,2540
2023-05-12T07:00:41.876Z,3572
2023-05-12T07:03:10.683Z,2628
2023-05-12T07:04:25.084Z,929
2023-05-12T07:05:39.518Z,1442
2023-05-12T07:06:53.931Z,2501
2023-05-12T07:08:08.356Z,1356
2023-05-12T07:09:22.744Z,1448
2023-05-12T07:10:37.168Z,1303
2023-05-12T07:13:06.000Z,1730
2023-05-12T07:14:19.523Z,1167
2023-05-12T07:15:33.946Z,1220
2023-05-12T07:18:02.774Z,2095
2023-05-12T07:19:17.174Z,635
2023-05-12T07:20:31.586Z,2799
2023-05-12T07:21:45.996Z,3210
2023-05-12T07:23:00.415Z,1137
2023-05-12T07:25:29.238Z,1462
2023-05-12T07:26:43.689Z,1244
2023-05-12T07:27:58.097Z,543
2023-05-12T07:29:12.486Z,1880
2023-05-12T07:30:26.892Z,1987
2023-05-12T07:32:54.849Z,2448
2023-05-12T07:34:09.259Z,2375
2023-05-12T07:35:23.676Z,2366
2023-05-12T07:36:38.097Z,2294
2023-05-12T07:37:52.509Z,2290
2023-05-12T07:39:06.945Z,2184
2023-05-12T07:40:21.364Z,2293
2023-05-12T07:42:50.165Z,2104
2023-05-12T07:44:04.573Z,2108
2023-05-12T07:45:19.027Z,2222
2023-05-12T07:46:33.405Z,1792
2023-05-12T07:47:46.970Z,2063
2023-05-12T07:49:01.342Z,2038
2023-05-12T07:50:15.797Z,2026
2023-05-12T07:51:30.179Z,1995
2023-05-12T07:52:44.587Z,2001
2023-05-12T07:53:58.996Z,1996
2023-05-12T07:56:27.832Z,1950
2023-05-12T07:57:42.245Z,1953
2023-05-12T07:58:56.651Z,1944
2023-05-12T08:00:11.076Z,1924
2023-05-12T08:02:39.903Z,1998
2023-05-12T08:03:53.435Z,1823
2023-05-12T08:05:07.845Z,1649
2023-05-12T08:06:22.000Z,1825
2023-05-12T08:07:36.667Z,1801
2023-05-12T08:08:51.114Z,1815
2023-05-12T08:10:05.496Z,1775
2023-05-12T08:11:19.916Z,1794
2023-05-12T08:12:34.360Z,1709
2023-05-12T08:13:48.740Z,1726
2023-05-12T08:15:03.148Z,1729
2023-05-12T08:17:32.011Z,1709
2023-05-12T08:18:46.389Z,1703
2023-05-12T08:20:00.805Z,1740
2023-05-12T08:21:15.228Z,1721
2023-05-12T08:22:29.635Z,1713
2023-05-12T08:23:44.045Z,1739
2023-05-12T08:24:57.579Z,1659
2023-05-12T08:26:12.026Z,1857
2023-05-12T08:27:26.419Z,1327
2023-05-12T08:28:40.854Z,1691
2023-05-12T08:29:55.267Z,1685
2023-05-12T08:31:09.650Z,1721
2023-05-12T08:32:23.206Z,1594
2023-05-12T08:33:37.621Z,1633
2023-05-12T08:34:51.156Z,1586
2023-05-12T08:37:19.987Z,1568
2023-05-12T08:38:34.430Z,1587
2023-05-12T08:39:48.848Z,1591
2023-05-12T08:42:17.672Z,1785
2023-05-12T08:43:32.047Z,1255
2023-05-12T08:46:00.891Z,1572
2023-05-12T08:47:15.286Z,1521
2023-05-12T08:48:29.711Z,1589
2023-05-12T08:49:44.118Z,1527
2023-05-12T08:50:57.675Z,1550
2023-05-12T08:52:11.205Z,1589
2023-05-12T08:53:25.659Z,1384
2023-05-12T08:54:40.080Z,1495
2023-05-12T08:55:54.446Z,1552
2023-05-12T08:58:23.289Z,1554
2023-05-12T08:59:37.733Z,1441
2023-05-12T09:00:52.143Z,1522
2023-05-12T09:02:06.565Z,1541
2023-05-12T09:03:20.931Z,1511
2023-05-12T09:04:35.347Z,1558
2023-05-12T09:05:49.812Z,1587
2023-05-12T09:07:04.183Z,1397
2023-05-12T09:08:18.584Z,1519
2023-05-12T09:09:32.996Z,1538
2023-05-12T09:12:01.829Z,1530
2023-05-12T09:13:16.238Z,1480
2023-05-12T09:14:29.814Z,1534
2023-05-12T09:15:44.201Z,1518
2023-05-12T09:16:58.599Z,1579
2023-05-12T09:18:13.029Z,1469
2023-05-12T09:19:27.439Z,1515
2023-05-12T09:21:56.269Z,1385
2023-05-12T09:23:10.677Z,1489
2023-05-12T09:24:25.081Z,1508
2023-05-12T09:25:39.502Z,1556
2023-05-12T09:26:53.915Z,1511
2023-05-12T09:28:08.330Z,1472
2023-05-12T09:29:22.749Z,1556
2023-05-12T09:33:05.991Z,1535
2023-05-12T09:34:20.393Z,1542
2023-05-12T09:35:34.847Z,1549
2023-05-12T09:36:48.349Z,1551
2023-05-12T09:38:02.799Z,1542
2023-05-12T09:39:17.175Z,1533
2023-05-12T09:40:31.624Z,1529
2023-05-12T09:43:00.453Z,1543
2023-05-12T09:44:14.838Z,1496
2023-05-12T09:45:29.236Z,1516
2023-05-12T09:46:43.664Z,1530
2023-05-12T09:47:58.075Z,1550
2023-05-12T09:49:12.521Z,1532
2023-05-12T09:50:26.907Z,1578
2023-05-12T09:52:55.730Z,1527
2023-05-12T09:54:10.136Z,1545
2023-05-12T09:56:38.957Z,1550
2023-05-12T09:57:53.427Z,1529
2023-05-12T09:59:07.825Z,1551
2023-05-12T10:00:22.236Z,1566
2023-05-12T10:01:36.630Z,1517
2023-05-12T10:02:51.042Z,1585
2023-05-12T10:04:05.445Z,1480
2023-05-12T10:06:34.275Z,1547
2023-05-12T10:07:47.861Z,1563
2023-05-12T10:12:45.512Z,1606
2023-05-12T10:13:59.880Z,1491
2023-05-12T10:15:14.297Z,1540
2023-05-12T10:16:28.755Z,1547
2023-05-12T10:17:43.154Z,1583
2023-05-12T10:18:57.525Z,1499
2023-05-12T10:20:11.072Z,1638
2023-05-12T10:21:25.483Z,1389
2023-05-12T10:22:39.886Z,1537
2023-05-12T10:23:54.310Z,1573
2023-05-12T10:25:08.731Z,1583
2023-05-12T10:26:23.129Z,1635
2023-05-12T10:27:37.542Z,1478
2023-05-12T10:28:51.969Z,1535
2023-05-12T10:30:06.381Z,1641
2023-05-12T10:31:20.828Z,1462
2023-05-12T10:32:35.211Z,1527
2023-05-12T10:33:49.655Z,1600
2023-05-12T10:35:04.039Z,1634
2023-05-12T10:36:17.558Z,1557
2023-05-12T10:37:31.157Z,1603
2023-05-12T10:38:44.691Z,1597
2023-05-12T10:39:59.078Z,1670
2023-05-12T10:41:13.479Z,1459
2023-05-12T10:44:56.717Z,1662
2023-05-12T10:46:11.144Z,1500
2023-05-12T10:47:25.544Z,1618
2023-05-12T10:48:39.972Z,1625
2023-05-12T10:49:54.383Z,1637
2023-05-12T10:52:23.201Z,1653
2023-05-12T10:54:51.168Z,1570
2023-05-12T10:57:19.139Z,1662
2023-05-12T10:58:33.568Z,1627
2023-05-12T10:59:47.116Z,1724
2023-05-12T11:01:00.641Z,1795
2023-05-12T11:02:15.112Z,1792
2023-05-12T11:03:29.469Z,1771
2023-05-12T11:04:43.897Z,1763
2023-05-12T11:05:58.296Z,1761
2023-05-12T11:07:12.727Z,1841
2023-05-12T11:08:27.135Z,1766
2023-05-12T11:09:41.587Z,1765
2023-05-12T11:10:55.962Z,1777
2023-05-12T11:12:10.376Z,1777
2023-05-12T11:13:24.781Z,1803
2023-05-12T11:14:38.387Z,1774
2023-05-12T11:15:51.885Z,1783
2023-05-12T11:17:06.297Z,1830
2023-05-12T11:18:20.756Z,1792
2023-05-12T11:19:35.120Z,1915
2023-05-12T11:22:03.944Z,1834
2023-05-12T11:24:32.815Z,1945
2023-05-12T11:25:47.186Z,1839
2023-05-12T11:28:16.024Z,785
2023-05-12T11:29:30.436Z,2428
2023-05-12T11:30:44.849Z,1711
2023-05-12T11:31:59.258Z,407
2023-05-12T11:33:12.810Z,1763
2023-05-12T11:34:27.226Z,2114
2023-05-12T11:35:40.751Z,2005
2023-05-12T11:36:55.166Z,1290
2023-05-12T11:38:09.597Z,1284
2023-05-12T11:39:24.008Z,830
2023-05-12T11:40:38.411Z,974
2023-05-12T11:41:52.863Z,2053
2023-05-12T11:43:07.278Z,2953
2023-05-12T11:44:21.648Z,1984
2023-05-12T11:45:35.208Z,1866
2023-05-12T11:46:49.616Z,1803
2023-05-12T11:48:03.155Z,1735
2023-05-12T11:49:17.568Z,1661
2023-05-12T11:50:31.988Z,1611
2023-05-12T11:53:00.824Z,592
2023-05-12T11:54:15.227Z,2969
2023-05-12T11:55:29.648Z,1767
2023-05-12T11:56:44.063Z,1743
2023-05-12T11:57:58.479Z,1994
2023-05-12T11:59:12.894Z,2167
2023-05-12T12:00:27.289Z,1992
2023-05-12T12:01:41.717Z,586
2023-05-12T12:04:10.573Z,2256
2023-05-12T12:05:24.948Z,2226
2023-05-12T12:06:39.365Z,3083
2023-05-12T12:07:52.921Z,2131
2023-05-12T12:09:06.501Z,1632
2023-05-12T12:10:20.872Z,2025
2023-05-12T12:11:35.285Z,1822
2023-05-12T12:12:49.687Z,1875
2023-05-12T12:14:04.118Z,1817
2023-05-12T12:15:18.529Z,1377
2023-05-12T12:16:32.933Z,779
2023-05-12T12:19:01.767Z,2221
2023-05-12T12:20:16.172Z,3010
2023-05-12T12:21:30.586Z,2888
2023-05-12T12:23:59.458Z,1754
2023-05-12T12:26:28.238Z,3307
2023-05-12T12:27:42.653Z,1980
2023-05-12T12:30:11.478Z,1969
2023-05-12T12:31:25.891Z,2066
2023-05-12T12:33:53.841Z,2258
2023-05-12T12:35:08.261Z,2138
2023-05-12T12:36:22.727Z,2095
2023-05-12T12:38:51.543Z,2030
2023-05-12T12:40:05.958Z,2315
2023-05-12T12:41:20.324Z,2142
2023-05-12T12:42:34.742Z,2190
2023-05-12T12:43:49.160Z,2089
2023-05-12T12:45:03.567Z,1993
2023-05-12T12:46:18.026Z,1785
2023-05-12T12:47:32.437Z,2246
2023-05-12T12:48:46.802Z,2112
2023-05-12T12:50:00.353Z,2169
2023-05-12T12:51:14.758Z,2103
2023-05-12T12:52:29.185Z,1557
2023-05-12T12:54:58.003Z,1774
2023-05-12T12:56:12.419Z,754
2023-05-12T12:58:41.237Z,2078
2023-05-12T12:59:55.660Z,2071
2023-05-12T13:01:10.067Z,2383
2023-05-12T13:02:24.489Z,2503
2023-05-12T13:03:38.897Z,2541
2023-05-12T13:04:53.302Z,2444
2023-05-12T13:06:07.764Z,2523
2023-05-12T13:07:22.138Z,2438
2023-05-12T13:08:36.554Z,2288
2023-05-12T13:09:51.012Z,2207
2023-05-12T13:11:04.495Z,2169
2023-05-12T13:12:18.915Z,2077
2023-05-12T13:14:47.743Z,1920
2023-05-12T13:16:02.158Z,1826
2023-05-12T13:19:45.395Z,1715
2023-05-12T13:20:59.850Z,1662
2023-05-12T13:22:14.228Z,1638
2023-05-12T13:23:28.678Z,1574
2023-05-12T13:24:43.053Z,1530
2023-05-12T13:25:57.474Z,1476
2023-05-12T13:28:26.340Z,1710
2023-05-12T13:29:40.698Z,943
2023-05-12T13:30:55.127Z,2705
2023-05-12T13:32:09.529Z,1669
2023-05-12T13:33:23.069Z,797
2023-05-12T13:34:37.485Z,3723
2023-05-12T13:37:06.303Z,3427
2023-05-12T13:38:20.726Z,4169
2023-05-12T13:39:35.137Z,1357
2023-05-12T13:40:49.554Z,2335
2023-05-12T13:42:03.955Z,4237
2023-05-12T13:43:18.380Z,5078
2023-05-12T13:44:32.797Z,3496
2023-05-12T13:45:47.207Z,4729
2023-05-12T13:48:16.041Z,5044
2023-05-12T13:49:30.488Z,3869
2023-05-12T13:50:43.975Z,4458
2023-05-12T13:51:58.401Z,4637
2023-05-12T13:53:12.858Z,4733
2023-05-12T13:54:27.225Z,6061
2023-05-12T13:55:41.685Z,4342
2023-05-12T13:58:10.465Z,2599
2023-05-12T14:00:39.288Z,1717
2023-05-12T14:01:53.748Z,2541
2023-05-12T14:03:08.174Z,1562
2023-05-12T14:04:22.536Z,578
2023-05-12T14:05:36.987Z,2927
2023-05-12T14:06:51.402Z,626
2023-05-12T14:08:05.780Z,3168
2023-05-12T14:09:20.177Z,685
2023-05-12T14:10:33.712Z,4511
2023-05-12T14:11:48.139Z,3086
2023-05-12T14:13:02.595Z,2178
2023-05-12T14:14:16.966Z,2090
2023-05-12T14:15:31.369Z,1890
2023-05-12T14:16:45.798Z,1920
2023-05-12T14:18:00.195Z,1176
2023-05-12T14:19:14.620Z,4119
2023-05-12T14:20:29.025Z,3848
2023-05-12T14:21:43.446Z,3169
2023-05-12T14:22:57.853Z,3213
2023-05-12T14:24:11.418Z,3335
2023-05-12T14:25:25.835Z,3429
2023-05-12T14:26:39.363Z,3381
2023-05-12T14:27:53.770Z,2460
2023-05-12T14:29:08.182Z,3145
2023-05-12T14:30:22.600Z,3735
2023-05-12T14:32:51.486Z,3469
2023-05-12T14:34:05.907Z,3043
2023-05-12T14:35:20.263Z,2747
2023-05-12T14:36:34.665Z,2380
2023-05-12T14:37:49.077Z,2174
2023-05-12T14:39:03.502Z,2159
2023-05-12T14:40:17.036Z,2050
2023-05-12T14:41:31.442Z,1969
2023-05-12T14:42:45.858Z,1915
2023-05-12T14:44:00.270Z,1981
2023-05-12T14:45:14.683Z,2201
2023-05-12T14:46:29.101Z,2199
2023-05-12T14:47:43.569Z,2093
2023-05-12T14:48:57.934Z,1938
2023-05-12T14:50:11.477Z,1990
2023-05-12T14:51:25.902Z,2000
2023-05-12T14:52:39.442Z,1963
2023-05-12T14:53:53.841Z,1744
2023-05-12T14:55:08.271Z,1603
2023-05-12T14:56:22.678Z,1449
2023-05-12T14:57:37.087Z,1292
2023-05-12T14:58:51.507Z,1176
2023-05-12T15:00:05.918Z,1138
2023-05-12T15:02:34.747Z,1009
2023-05-12T15:03:49.149Z,956
2023-05-12T15:05:03.625Z,942
2023-05-12T15:06:17.987Z,931
2023-05-12T15:07:32.392Z,957
2023-05-12T15:08:46.807Z,1039
2023-05-12T15:10:01.231Z,1086
2023-05-12T15:12:30.099Z,1434
2023-05-12T15:13:44.471Z,1122
2023-05-12T15:14:58.082Z,2724
2023-05-12T15:16:12.434Z,892
2023-05-12T15:17:26.856Z,2346
2023-05-12T15:18:41.263Z,9664
2023-05-12T15:19:54.849Z,21277
2023-05-12T15:21:09.220Z,3789
2023-05-12T15:22:23.688Z,20288
2023-05-12T15:24:52.504Z,1305
2023-05-12T15:26:06.860Z,3482
2023-05-12T15:27:21.331Z,19753
2023-05-12T15:28:35.705Z,22795
2023-05-12T15:29:50.165Z,27033
2023-05-12T15:31:04.528Z,32315
2023-05-12T15:32:18.990Z,24678
2023-05-12T15:33:33.356Z,24119
2023-05-12T15:34:47.813Z,72139
2023-05-12T15:37:16.587Z,58059
2023-05-12T15:38:31.052Z,6545
2023-05-12T15:39:44.564Z,4365
2023-05-12T15:40:58.970Z,6640
2023-05-12T15:42:13.389Z,3636
2023-05-12T15:43:27.852Z,3255
2023-05-12T15:44:42.213Z,3106
2023-05-12T15:45:55.755Z,2784
2023-05-12T15:47:10.224Z,1308
2023-05-12T15:48:24.581Z,6644
2023-05-12T15:49:38.983Z,3590
2023-05-12T15:52:07.816Z,2309
2023-05-12T15:53:22.000Z,1992
2023-05-12T15:54:36.698Z,1771
2023-05-12T15:55:51.060Z,1605
2023-05-12T15:57:05.472Z,1439
2023-05-12T15:58:19.884Z,1312
2023-05-12T15:59:34.299Z,1278
2023-05-12T16:00:48.720Z,1256
2023-05-12T16:02:02.313Z,1220
2023-05-12T16:03:16.658Z,1261
2023-05-12T16:04:31.083Z,1329
2023-05-12T16:05:45.484Z,1350
2023-05-12T16:06:59.911Z,1422
2023-05-12T16:08:14.311Z,1478
2023-05-12T16:09:27.868Z,1570
2023-05-12T16:11:56.705Z,1778
2023-05-12T16:13:11.124Z,1833
2023-05-12T16:14:25.522Z,1776
2023-05-12T16:15:39.949Z,1677
2023-05-12T16:16:54.347Z,1802
2023-05-12T16:18:08.826Z,1887
2023-05-12T16:19:22.297Z,3564
2023-05-12T16:20:36.711Z,1738
2023-05-12T16:21:51.136Z,5004
2023-05-12T16:23:05.548Z,18900
2023-05-12T16:24:19.950Z,25294
2023-05-12T16:26:48.846Z,4435
2023-05-12T16:28:03.263Z,15878
2023-05-12T16:29:16.760Z,22921
2023-05-12T16:32:59.988Z,11584
2023-05-12T16:34:14.413Z,29231
2023-05-12T16:36:43.230Z,3883
2023-05-12T16:37:57.650Z,3169
2023-05-12T16:39:11.182Z,2933
2023-05-12T16:40:25.599Z,2779
2023-05-12T16:42:54.429Z,2649
2023-05-12T16:44:08.892Z,2487
2023-05-12T16:45:23.246Z,2428
2023-05-12T16:46:37.729Z,2394
2023-05-12T16:47:52.073Z,2354
2023-05-12T16:50:20.910Z,2234
2023-05-12T16:51:35.320Z,2378
2023-05-12T16:52:49.740Z,2439
2023-05-12T16:54:04.146Z,2229
2023-05-12T16:55:17.687Z,2386
2023-05-12T16:56:32.106Z,2440
2023-05-12T16:57:46.509Z,2404
2023-05-12T16:59:00.936Z,2209
2023-05-12T17:01:29.760Z,1547
2023-05-12T17:02:44.178Z,1294
2023-05-12T17:03:58.573Z,1034
2023-05-12T17:05:13.001Z,822
2023-05-12T17:06:27.474Z,591
2023-05-12T17:07:41.825Z,444
2023-05-12T17:08:56.230Z,372
2023-05-12T17:11:25.059Z,280
2023-05-12T17:12:39.478Z,233
2023-05-12T17:13:53.012Z,200
2023-05-12T17:16:21.834Z,156
2023-05-12T17:17:36.248Z,131
2023-05-12T17:18:50.675Z,115
2023-05-12T17:21:19.497Z,108
2023-05-12T17:22:33.901Z,106
2023-05-12T17:23:48.321Z,107
2023-05-12T17:25:02.725Z,106
2023-05-12T17:26:17.151Z,112
2023-05-12T17:27:31.564Z,107
2023-05-12T17:28:46.031Z,106
2023-05-12T17:30:00.378Z,109
2023-05-12T17:31:13.984Z,115
2023-05-12T17:32:28.342Z,120
2023-05-12T17:33:42.810Z,121
2023-05-12T17:34:57.165Z,128
2023-05-12T17:36:11.580Z,134
2023-05-12T17:37:26.003Z,135
2023-05-12T17:38:40.414Z,143
2023-05-12T17:39:54.822Z,149
2023-05-12T17:41:09.285Z,149
2023-05-12T17:43:37.210Z,143
2023-05-12T17:44:51.622Z,146
2023-05-12T17:46:06.084Z,147
2023-05-12T17:47:19.603Z,167
2023-05-12T17:48:34.051Z,174
2023-05-12T17:51:01.953Z,204
2023-05-12T17:52:16.418Z,259
2023-05-12T17:53:30.789Z,261
2023-05-12T17:54:45.192Z,175
2023-05-12T17:55:59.609Z,149
2023-05-12T17:57:14.031Z,127
2023-05-12T17:58:28.437Z,113
2023-05-12T17:59:42.843Z,105
2023-05-12T18:00:57.316Z,106
2023-05-12T18:02:11.678Z,106
2023-05-12T18:03:26.139Z,105
2023-05-12T18:04:40.510Z,99
2023-05-12T18:07:09.334Z,84
2023-05-12T18:08:23.807Z,81
2023-05-12T18:09:38.156Z,79
2023-05-12T18:10:52.570Z,79
2023-05-12T18:12:06.999Z,83
2023-05-12T18:13:21.401Z,80
2023-05-12T18:14:35.811Z,79
2023-05-12T18:17:04.694Z,79
2023-05-12T18:18:19.063Z,81
2023-05-12T18:19:33.467Z,80
2023-05-12T18:20:47.880Z,79
2023-05-12T18:22:02.309Z,79
2023-05-12T18:23:16.758Z,75
2023-05-12T18:24:31.134Z,70
2023-05-12T18:25:45.585Z,60
2023-05-12T18:26:59.965Z,50
2023-05-12T18:28:14.370Z,45
2023-05-12T18:29:27.909Z,52
2023-05-12T18:30:42.315Z,49
2023-05-12T18:31:56.721Z,43
2023-05-12T18:33:11.141Z,38
2023-05-12T18:34:24.703Z,37
2023-05-12T18:35:39.166Z,31
2023-05-12T18:36:53.521Z,31
2023-05-12T18:38:07.941Z,34
2023-05-12T18:39:21.484Z,33
2023-05-12T18:40:35.896Z,32
2023-05-12T18:41:50.294Z,28
2023-05-12T18:43:04.723Z,25
2023-05-12T18:44:19.121Z,25
2023-05-12T18:45:33.534Z,22
2023-05-12T18:46:47.949Z,24
2023-05-12T18:48:02.371Z,24
2023-05-12T18:49:15.905Z,22
2023-05-12T18:50:30.323Z,23
2023-05-12T18:51:44.740Z,21
2023-05-12T18:52:59.141Z,22
2023-05-12T18:54:13.564Z,20
2023-05-12T18:55:27.970Z,18